createdAt,value
2023-03-06T00:00:53.421Z,96234.34
2023-03-06T00:03:20.798Z,96231.56
2023-03-06T00:05:47.466Z,96229.34
2023-03-06T00:08:14.151Z,96223.53
2023-03-06T00:10:41.110Z,96222.38
2023-03-06T00:13:15.211Z,96216.34
2023-03-06T00:15:48.030Z,96223.53
2023-03-06T00:18:17.497Z,96222.84
2023-03-06T00:20:47.775Z,96216.72
2023-03-06T00:23:16.780Z,96212.47
2023-03-06T00:25:46.600Z,96219.66
2023-03-06T00:28:17.986Z,96210.97
2023-03-06T00:30:46.117Z,96205.28
2023-03-06T00:33:12.749Z,96204.50
2023-03-06T00:35:40.177Z,96208.16
2023-03-06T00:38:09.695Z,96209.00
2023-03-06T00:40:36.236Z,96200.34
2023-03-06T00:43:05.125Z,96202.31
2023-03-06T00:45:31.869Z,96193.50
2023-03-06T00:47:58.493Z,96198.84
2023-03-06T00:50:25.072Z,96198.16
2023-03-06T00:52:53.933Z,96192.38
2023-03-06T00:55:22.698Z,96191.38
2023-03-06T00:57:49.199Z,96183.00
2023-03-06T01:00:21.224Z,96177.19
2023-03-06T01:02:50.195Z,96179.41
2023-03-06T01:05:21.510Z,96173.81
2023-03-06T01:07:48.070Z,96173.06
2023-03-06T01:10:14.740Z,96159.34
2023-03-06T01:12:45.154Z,96156.97
2023-03-06T01:15:13.385Z,96160.41
2023-03-06T01:17:39.978Z,96156.50
2023-03-06T01:20:07.237Z,96154.84
2023-03-06T01:22:33.990Z,96152.25
2023-03-06T01:25:00.556Z,96148.53
2023-03-06T01:27:27.191Z,96149.25
2023-03-06T01:29:53.771Z,96137.84
2023-03-06T01:32:22.688Z,96143.16
2023-03-06T01:34:49.345Z,96139.34
2023-03-06T01:37:15.908Z,96145.72
2023-03-06T01:39:45.065Z,96137.00
2023-03-06T01:42:16.349Z,96136.56
2023-03-06T01:45:04.320Z,96131.88
2023-03-06T01:47:30.948Z,96125.13
2023-03-06T01:50:00.659Z,96121.28
2023-03-06T01:52:32.809Z,96116.66
2023-03-06T01:55:08.464Z,96109.75
2023-03-06T01:57:43.957Z,96107.44
2023-03-06T02:00:17.993Z,96104.34
2023-03-06T02:02:52.877Z,96103.13
2023-03-06T02:05:19.877Z,96103.06
2023-03-06T02:07:53.205Z,96094.34
2023-03-06T02:10:20.973Z,96098.53
2023-03-06T02:12:51.687Z,96087.84
2023-03-06T02:15:23.578Z,96089.69
2023-03-06T02:17:51.594Z,96084.00
2023-03-06T02:20:27.337Z,96072.94
2023-03-06T02:23:43.848Z,96075.56
2023-03-06T02:26:12.081Z,96061.53
2023-03-06T02:28:43.457Z,96057.69
2023-03-06T02:31:24.082Z,96054.59
2023-03-06T02:34:22.255Z,96062.19
2023-03-06T02:36:52.251Z,96054.19
2023-03-06T02:39:24.193Z,96054.97
2023-03-06T02:41:53.707Z,96051.50
2023-03-06T02:44:24.262Z,96061.03
2023-03-06T02:46:50.860Z,96058.34
2023-03-06T02:49:17.430Z,96048.38
2023-03-06T02:51:44.590Z,96051.41
2023-03-06T02:54:13.533Z,96052.94
2023-03-06T02:56:44.842Z,96043.94
2023-03-06T02:59:12.533Z,96038.25
2023-03-06T03:01:43.717Z,96037.09
2023-03-06T03:04:12.798Z,96043.22
2023-03-06T03:06:39.404Z,96042.09
2023-03-06T03:09:06.199Z,96038.63
2023-03-06T03:11:32.869Z,96039.03
2023-03-06T03:13:59.426Z,96036.72
2023-03-06T03:16:25.991Z,96038.25
2023-03-06T03:18:52.545Z,96035.56
2023-03-06T03:21:23.978Z,96037.75
2023-03-06T03:23:50.520Z,96035.16
2023-03-06T03:26:22.322Z,96037.41
2023-03-06T03:28:51.424Z,96034.81
2023-03-06T03:31:20.355Z,96034.41
2023-03-06T03:33:49.942Z,96029.47
2023-03-06T03:36:16.525Z,96027.88
2023-03-06T03:38:45.406Z,96027.16
2023-03-06T03:41:11.963Z,96024.97
2023-03-06T03:43:41.113Z,96024.22
2023-03-06T03:46:07.674Z,96028.69
2023-03-06T03:48:34.290Z,96029.91
2023-03-06T03:51:12.265Z,96027.31
2023-03-06T03:53:42.075Z,96033.41
2023-03-06T03:56:08.876Z,96026.56
2023-03-06T03:58:35.533Z,96018.19
2023-03-06T04:01:06.782Z,96017.06
2023-03-06T04:03:33.572Z,96024.22
2023-03-06T04:06:02.857Z,96025.00
2023-03-06T04:08:31.800Z,96023.81
2023-03-06T04:11:00.930Z,96029.13
2023-03-06T04:13:30.501Z,96033.41
2023-03-06T04:15:57.119Z,96030.47
2023-03-06T04:18:29.008Z,96030.09
2023-03-06T04:20:55.560Z,96029.38
2023-03-06T04:23:24.766Z,96026.34
2023-03-06T04:25:54.116Z,96018.72
2023-03-06T04:28:20.959Z,96017.22
2023-03-06T04:30:49.921Z,96017.63
2023-03-06T04:33:16.838Z,96015.72
2023-03-06T04:35:43.396Z,96011.16
2023-03-06T04:38:12.364Z,96010.44
2023-03-06T04:40:44.465Z,95998.91
2023-03-06T04:43:13.453Z,96002.81
2023-03-06T04:45:40.053Z,96005.66
2023-03-06T04:48:06.882Z,96001.44
2023-03-06T04:50:33.929Z,95997.97
2023-03-06T04:53:05.824Z,96004.09
2023-03-06T04:55:34.690Z,96006.09
2023-03-06T04:58:01.322Z,96010.34
2023-03-06T05:00:31.487Z,96008.47
2023-03-06T05:03:00.181Z,96010.00
2023-03-06T05:05:27.228Z,96001.63
2023-03-06T05:07:54.223Z,96012.25
2023-03-06T05:10:23.281Z,96006.59
2023-03-06T05:12:52.190Z,96010.41
2023-03-06T05:15:24.091Z,96010.41
2023-03-06T05:17:50.723Z,96010.75
2023-03-06T05:20:17.699Z,96013.44
2023-03-06T05:22:44.594Z,96019.53
2023-03-06T05:25:11.396Z,96011.91
2023-03-06T05:27:43.207Z,96014.94
2023-03-06T05:30:14.730Z,96015.69
2023-03-06T05:32:44.045Z,96015.34
2023-03-06T05:35:17.190Z,96017.94
2023-03-06T05:37:46.393Z,96025.97
2023-03-06T05:40:13.586Z,96020.25
2023-03-06T05:42:42.913Z,96024.88
2023-03-06T05:45:12.267Z,96027.53
2023-03-06T05:47:38.891Z,96028.66
2023-03-06T05:50:08.047Z,96032.34
2023-03-06T05:52:34.591Z,96026.75
2023-03-06T05:55:01.276Z,96029.84
2023-03-06T05:57:30.277Z,96025.25
2023-03-06T05:59:59.054Z,96036.66
2023-03-06T06:02:25.688Z,96026.00
2023-03-06T06:04:57.010Z,96030.19
2023-03-06T06:07:25.967Z,96035.53
2023-03-06T06:09:53.448Z,96035.47
2023-03-06T06:12:20.166Z,96029.81
2023-03-06T06:14:49.139Z,96040.88
2023-03-06T06:17:16.666Z,96043.59
2023-03-06T06:19:45.518Z,96039.78
2023-03-06T06:22:12.508Z,96041.47
2023-03-06T06:24:39.231Z,96043.41
2023-03-06T06:27:11.001Z,96035.75
2023-03-06T06:29:37.740Z,96039.56
2023-03-06T06:32:06.929Z,96046.81
2023-03-06T06:34:34.217Z,96051.41
2023-03-06T06:37:02.989Z,96047.56
2023-03-06T06:39:29.769Z,96044.13
2023-03-06T06:42:20.018Z,96048.34
2023-03-06T06:44:45.113Z,96044.16
2023-03-06T06:47:23.528Z,96055.63
2023-03-06T06:49:58.162Z,96050.69
2023-03-06T06:52:25.439Z,96043.44
2023-03-06T06:54:54.586Z,96052.63
2023-03-06T06:57:21.908Z,96059.50
2023-03-06T06:59:48.483Z,96061.41
2023-03-06T07:02:18.083Z,96049.56
2023-03-06T07:05:01.903Z,96061.81
2023-03-06T07:07:33.095Z,96058.06
2023-03-06T07:09:59.710Z,96055.38
2023-03-06T07:12:28.499Z,96053.09
2023-03-06T07:14:59.805Z,96053.44
2023-03-06T07:17:26.361Z,96056.03
2023-03-06T07:19:54.970Z,96063.69
2023-03-06T07:22:23.794Z,96059.91
2023-03-06T07:24:55.611Z,96063.69
2023-03-06T07:27:23.745Z,96059.16
2023-03-06T07:29:55.394Z,96061.88
2023-03-06T07:32:22.024Z,96052.75
2023-03-06T07:34:50.867Z,96041.69
2023-03-06T07:37:19.712Z,96048.19
2023-03-06T07:39:50.893Z,96054.31
2023-03-06T07:42:17.439Z,96053.97
2023-03-06T07:44:46.696Z,96068.06
2023-03-06T07:47:15.568Z,96060.81
2023-03-06T07:49:42.119Z,96068.06
2023-03-06T07:52:08.690Z,96068.47
2023-03-06T07:54:35.292Z,96067.72
2023-03-06T07:57:08.965Z,96075.00
2023-03-06T07:59:37.738Z,96072.31
2023-03-06T08:02:04.595Z,96079.19
2023-03-06T08:04:34.383Z,96068.88
2023-03-06T08:07:03.582Z,96063.91
2023-03-06T08:09:30.567Z,96072.31
2023-03-06T08:11:57.382Z,96070.78
2023-03-06T08:14:23.948Z,96074.22
2023-03-06T08:16:55.378Z,96081.88
2023-03-06T08:19:22.086Z,96087.19
2023-03-06T08:21:48.653Z,96085.69
2023-03-06T08:24:18.662Z,96086.41
2023-03-06T08:26:47.741Z,96098.66
2023-03-06T08:29:17.033Z,96091.72
2023-03-06T08:31:48.859Z,96087.88
2023-03-06T08:34:18.201Z,96089.75
2023-03-06T08:36:45.273Z,96087.75
2023-03-06T08:39:12.192Z,96091.47
2023-03-06T08:41:42.068Z,96082.53
2023-03-06T08:44:11.437Z,96078.97
2023-03-06T08:46:40.784Z,96080.16
2023-03-06T08:49:07.704Z,96078.09
2023-03-06T08:51:36.758Z,96081.78
2023-03-06T08:54:05.887Z,96081.50
2023-03-06T08:56:34.168Z,96088.78
2023-03-06T08:59:02.808Z,96089.63
2023-03-06T09:01:31.988Z,96092.59
2023-03-06T09:04:01.190Z,96089.00
2023-03-06T09:06:31.158Z,96098.47
2023-03-06T09:08:58.189Z,96089.03
2023-03-06T09:11:26.078Z,96093.63
2023-03-06T09:13:55.380Z,96088.66
2023-03-06T09:16:27.832Z,96081.53
2023-03-06T09:18:54.652Z,96078.47
2023-03-06T09:21:22.648Z,96088.38
2023-03-06T09:23:51.483Z,96085.03
2023-03-06T09:26:18.683Z,96083.78
2023-03-06T09:28:48.238Z,96087.22
2023-03-06T09:31:20.226Z,96084.97
2023-03-06T09:33:47.553Z,96085.31
2023-03-06T09:36:22.389Z,96081.41
2023-03-06T09:38:51.417Z,96076.16
2023-03-06T09:41:24.227Z,96079.16
2023-03-06T09:43:55.202Z,96079.59
2023-03-06T09:46:27.776Z,96079.81
2023-03-06T09:49:25.470Z,96079.63
2023-03-06T09:52:06.724Z,96081.22
2023-03-06T09:54:39.317Z,96069.78
2023-03-06T09:57:14.122Z,96080.75
2023-03-06T09:59:45.210Z,96067.34
2023-03-06T10:02:20.986Z,96064.88
2023-03-06T10:04:59.640Z,96067.16
2023-03-06T10:07:43.440Z,96062.41
2023-03-06T10:10:25.971Z,96054.53
2023-03-06T10:13:14.037Z,96063.78
2023-03-06T10:15:46.380Z,96058.56
2023-03-06T10:18:13.435Z,96056.72
2023-03-06T10:20:42.216Z,96058.34
2023-03-06T10:23:27.631Z,96059.69
2023-03-06T10:26:09.410Z,96053.22
2023-03-06T10:28:44.612Z,96059.59
2023-03-06T10:31:25.455Z,96054.97
2023-03-06T10:34:07.563Z,96054.81
2023-03-06T10:36:36.429Z,96056.00
2023-03-06T10:39:09.775Z,96055.28
2023-03-06T10:41:38.219Z,96048.03
2023-03-06T10:44:07.943Z,96046.28
2023-03-06T10:46:42.390Z,96041.19
2023-03-06T10:49:32.514Z,96045.09
2023-03-06T10:52:14.024Z,96038.38
2023-03-06T10:54:48.269Z,96046.66
2023-03-06T10:57:17.893Z,96046.03
2023-03-06T10:59:58.927Z,96043.91
2023-03-06T11:02:25.478Z,96036.03
2023-03-06T11:04:54.708Z,96040.31
2023-03-06T11:07:23.640Z,96039.31
2023-03-06T11:09:59.221Z,96041.00
2023-03-06T11:12:30.694Z,96044.53
2023-03-06T11:15:17.459Z,96038.31
2023-03-06T11:18:24.589Z,96038.72
2023-03-06T11:20:56.173Z,96033.53
2023-03-06T11:23:43.927Z,96032.97
2023-03-06T11:26:20.139Z,96032.97
2023-03-06T11:29:13.175Z,96025.59
2023-03-06T11:31:52.012Z,96023.22
2023-03-06T11:34:27.418Z,96024.19
2023-03-06T11:37:22.909Z,96025.88
2023-03-06T11:40:13.704Z,96019.97
2023-03-06T11:43:02.092Z,96016.25
2023-03-06T11:45:43.905Z,96006.72
2023-03-06T11:48:18.552Z,96003.50
2023-03-06T11:50:48.426Z,96012.78
2023-03-06T11:53:37.309Z,96010.88
2023-03-06T11:56:19.241Z,96007.31
2023-03-06T11:59:22.002Z,96012.50
2023-03-06T12:02:03.662Z,96004.06
2023-03-06T12:05:03.750Z,96012.53
2023-03-06T12:07:35.146Z,96005.28
2023-03-06T12:10:18.964Z,96008.09
2023-03-06T12:12:54.624Z,95994.19
2023-03-06T12:15:49.928Z,96002.50
2023-03-06T12:18:41.238Z,96003.81
2023-03-06T12:21:07.763Z,96001.81
2023-03-06T12:23:50.045Z,96000.34
2023-03-06T12:26:39.896Z,95995.78
2023-03-06T12:29:28.533Z,95989.78
2023-03-06T12:32:04.640Z,95986.31
2023-03-06T12:34:58.065Z,95983.56
2023-03-06T12:37:48.137Z,95983.34
2023-03-06T12:40:35.975Z,95982.00
2023-03-06T12:43:33.333Z,95984.53
2023-03-06T12:46:26.369Z,95982.06
2023-03-06T12:49:42.298Z,95983.56
2023-03-06T12:52:29.743Z,95985.72
2023-03-06T12:54:58.788Z,95978.34
2023-03-06T12:57:25.993Z,95978.16
2023-03-06T12:59:53.552Z,95968.78
2023-03-06T13:02:22.900Z,95960.28
2023-03-06T13:05:14.008Z,95966.03
2023-03-06T13:07:43.574Z,95966.84
2023-03-06T13:10:35.613Z,95960.41
2023-03-06T13:13:20.981Z,95967.13
2023-03-06T13:16:23.380Z,95964.00
2023-03-06T13:18:58.892Z,95961.63
2023-03-06T13:21:54.419Z,95953.31
2023-03-06T13:24:33.085Z,95955.31
2023-03-06T13:27:08.235Z,95964.31
2023-03-06T13:29:37.886Z,95961.53
2023-03-06T13:32:04.376Z,95961.75
2023-03-06T13:34:46.834Z,95969.25
2023-03-06T13:37:25.171Z,95956.81
2023-03-06T13:39:58.496Z,95959.69
2023-03-06T13:42:29.226Z,95949.38
2023-03-06T13:44:58.323Z,95948.28
2023-03-06T13:47:33.509Z,95950.28
2023-03-06T13:50:14.098Z,95938.16
2023-03-06T13:53:21.973Z,95946.88
2023-03-06T13:56:08.356Z,95939.25
2023-03-06T13:58:53.643Z,95939.41
2023-03-06T14:01:32.583Z,95939.78
2023-03-06T14:04:16.621Z,95929.00
2023-03-06T14:07:12.010Z,95918.44
2023-03-06T14:09:46.942Z,95929.44
2023-03-06T14:12:23.755Z,95920.69
2023-03-06T14:14:58.917Z,95911.81
2023-03-06T14:17:31.784Z,95917.97
2023-03-06T14:20:05.590Z,95920.13
2023-03-06T14:22:32.163Z,95914.25
2023-03-06T14:25:07.913Z,95912.13
2023-03-06T14:27:49.176Z,95916.31
2023-03-06T14:30:21.254Z,95921.78
2023-03-06T14:32:50.104Z,95917.66
2023-03-06T14:35:37.592Z,95914.06
2023-03-06T14:38:06.595Z,95915.03
2023-03-06T14:40:53.672Z,95912.16
2023-03-06T14:43:26.941Z,95916.53
2023-03-06T14:46:02.886Z,95909.31
2023-03-06T14:48:40.224Z,95918.16
2023-03-06T14:51:14.631Z,95918.22
2023-03-06T14:53:45.496Z,95904.53
2023-03-06T14:56:26.082Z,95911.69
2023-03-06T14:58:52.630Z,95896.03
2023-03-06T15:01:28.007Z,95900.66
2023-03-06T15:03:59.785Z,95901.16
2023-03-06T15:06:37.743Z,95896.25
2023-03-06T15:09:08.053Z,95902.59
2023-03-06T15:11:51.215Z,95900.44
2023-03-06T15:14:19.817Z,95900.84
2023-03-06T15:16:48.855Z,95893.50
2023-03-06T15:19:22.583Z,95895.56
2023-03-06T15:21:55.403Z,95902.69
2023-03-06T15:24:33.106Z,95897.97
2023-03-06T15:27:16.390Z,95898.31
2023-03-06T15:29:45.958Z,95896.47
2023-03-06T15:32:18.909Z,95899.81
2023-03-06T15:35:08.211Z,95889.78
2023-03-06T15:37:34.786Z,95895.38
2023-03-06T15:40:09.211Z,95888.19
2023-03-06T15:42:36.361Z,95886.09
2023-03-06T15:45:15.881Z,95883.22
2023-03-06T15:47:46.238Z,95887.69
2023-03-06T15:50:25.211Z,95889.41
2023-03-06T15:52:52.754Z,95883.72
2023-03-06T15:55:21.916Z,95884.44
2023-03-06T15:58:03.380Z,95888.84
2023-03-06T16:00:35.263Z,95887.59
2023-03-06T16:03:02.968Z,95898.31
2023-03-06T16:05:32.479Z,95901.97
2023-03-06T16:08:01.301Z,95896.00
2023-03-06T16:10:33.701Z,95892.78
2023-03-06T16:13:06.729Z,95888.88
2023-03-06T16:15:41.481Z,95886.44
2023-03-06T16:18:11.971Z,95890.22
2023-03-06T16:20:40.126Z,95895.22
2023-03-06T16:23:10.595Z,95898.72
2023-03-06T16:25:42.296Z,95902.66
2023-03-06T16:28:14.410Z,95900.22
2023-03-06T16:30:45.513Z,95893.91
2023-03-06T16:33:13.325Z,95894.63
2023-03-06T16:35:41.208Z,95903.88
2023-03-06T16:38:07.919Z,95905.06
2023-03-06T16:40:38.830Z,95905.69
2023-03-06T16:43:05.587Z,95907.22
2023-03-06T16:45:36.502Z,95904.56
2023-03-06T16:48:03.489Z,95910.75
2023-03-06T16:50:40.816Z,95913.16
2023-03-06T16:53:08.166Z,95916.25
2023-03-06T16:55:37.407Z,95904.84
2023-03-06T16:58:06.689Z,95909.06
2023-03-06T17:00:33.409Z,95916.03
2023-03-06T17:03:02.713Z,95911.47
2023-03-06T17:05:33.126Z,95919.97
2023-03-06T17:07:59.683Z,95919.19
2023-03-06T17:10:27.249Z,95918.13
2023-03-06T17:12:55.342Z,95915.19
2023-03-06T17:15:22.428Z,95923.97
2023-03-06T17:17:49.302Z,95919.50
2023-03-06T17:20:16.114Z,95927.22
2023-03-06T17:22:45.425Z,95922.31
2023-03-06T17:25:14.283Z,95932.66
2023-03-06T17:27:40.903Z,95930.72
2023-03-06T17:30:07.978Z,95932.34
2023-03-06T17:32:34.737Z,95936.56
2023-03-06T17:35:03.439Z,95939.63
2023-03-06T17:37:31.961Z,95944.66
2023-03-06T17:40:00.784Z,95947.72
2023-03-06T17:42:27.379Z,95946.94
2023-03-06T17:44:57.406Z,95950.13
2023-03-06T17:47:26.945Z,95959.66
2023-03-06T17:49:54.008Z,95960.00
2023-03-06T17:52:20.514Z,95958.56
2023-03-06T17:54:49.284Z,95965.81
2023-03-06T17:57:16.031Z,95955.09
2023-03-06T17:59:48.741Z,95969.69
2023-03-06T18:02:15.813Z,95969.31
2023-03-06T18:04:44.602Z,95970.03
2023-03-06T18:07:13.681Z,95968.50
2023-03-06T18:09:44.013Z,95968.44
2023-03-06T18:12:10.643Z,95968.94
2023-03-06T18:14:37.243Z,95973.50
2023-03-06T18:17:04.753Z,95967.78
2023-03-06T18:19:33.604Z,95977.34
2023-03-06T18:22:00.568Z,95980.25
2023-03-06T18:24:27.340Z,95979.13
2023-03-06T18:26:53.897Z,95975.19
2023-03-06T18:29:25.899Z,95985.53
2023-03-06T18:31:56.829Z,95974.94
2023-03-06T18:34:23.426Z,95994.88
2023-03-06T18:36:52.950Z,95984.28
2023-03-06T18:39:21.426Z,95985.16
2023-03-06T18:41:48.256Z,95996.19
2023-03-06T18:44:16.310Z,95987.53
2023-03-06T18:46:43.489Z,95994.38
2023-03-06T18:49:11.794Z,95980.16
2023-03-06T18:51:38.478Z,95990.53
2023-03-06T18:54:08.015Z,95990.38
2023-03-06T18:56:34.823Z,95992.28
2023-03-06T18:59:03.961Z,95998.88
2023-03-06T19:01:33.697Z,95998.97
2023-03-06T19:04:02.172Z,95993.22
2023-03-06T19:06:31.458Z,95995.59
2023-03-06T19:09:02.105Z,95996.75
2023-03-06T19:11:31.974Z,96000.56
2023-03-06T19:14:01.725Z,95999.13
2023-03-06T19:16:32.640Z,96003.69
2023-03-06T19:18:59.247Z,96002.16
2023-03-06T19:21:27.562Z,95994.88
2023-03-06T19:23:57.279Z,96001.41
2023-03-06T19:26:24.528Z,96001.81
2023-03-06T19:28:52.422Z,96002.97
2023-03-06T19:31:25.189Z,96002.22
2023-03-06T19:33:53.368Z,96002.97
2023-03-06T19:36:23.736Z,95998.78
2023-03-06T19:38:56.872Z,96009.94
2023-03-06T19:41:23.561Z,96004.53
2023-03-06T19:43:53.055Z,96004.91
2023-03-06T19:46:20.926Z,96001.84
2023-03-06T19:48:47.899Z,96006.44
2023-03-06T19:51:14.624Z,96015.28
2023-03-06T19:53:44.468Z,96009.97
2023-03-06T19:56:20.009Z,96006.47
2023-03-06T19:58:46.567Z,96007.69
2023-03-06T20:01:17.966Z,95999.59
2023-03-06T20:03:46.775Z,96002.66
2023-03-06T20:06:16.043Z,96002.28
2023-03-06T20:08:46.657Z,96003.78
2023-03-06T20:11:25.269Z,95996.13
2023-03-06T20:13:54.628Z,96010.38
2023-03-06T20:16:21.214Z,95999.25
2023-03-06T20:18:47.947Z,96006.56
2023-03-06T20:21:15.438Z,95997.78
2023-03-06T20:23:42.796Z,96005.78
2023-03-06T20:26:14.336Z,96008.50
2023-03-06T20:28:42.240Z,96006.22
2023-03-06T20:31:18.202Z,96001.19
2023-03-06T20:33:50.516Z,96000.84
2023-03-06T20:36:22.066Z,96001.59
2023-03-06T20:38:51.377Z,96004.72
2023-03-06T20:41:21.509Z,95997.84
2023-03-06T20:43:50.828Z,95998.22
2023-03-06T20:46:18.857Z,95998.22
2023-03-06T20:48:48.446Z,95999.00
2023-03-06T20:51:16.926Z,95994.41
2023-03-06T20:53:46.453Z,95992.09
2023-03-06T20:56:17.014Z,95994.41
2023-03-06T20:58:44.401Z,96000.91
2023-03-06T21:01:26.441Z,95994.75
2023-03-06T21:03:54.064Z,95996.31
2023-03-06T21:06:21.364Z,95998.63
2023-03-06T21:08:50.755Z,96001.28
2023-03-06T21:11:17.787Z,95997.81
2023-03-06T21:13:46.677Z,95998.69
2023-03-06T21:16:19.422Z,95998.97
2023-03-06T21:18:48.538Z,96001.69
2023-03-06T21:21:21.385Z,95996.69
2023-03-06T21:23:48.669Z,95995.94
2023-03-06T21:26:19.021Z,95987.50
2023-03-06T21:28:46.037Z,95987.50
2023-03-06T21:31:14.215Z,95992.47
2023-03-06T21:33:43.810Z,95990.19
2023-03-06T21:36:10.775Z,95984.06
2023-03-06T21:38:39.163Z,95988.25
2023-03-06T21:41:14.426Z,95990.56
2023-03-06T21:43:41.917Z,95981.75
2023-03-06T21:46:09.752Z,95986.78
2023-03-06T21:48:36.745Z,95976.78
2023-03-06T21:51:19.483Z,95981.81
2023-03-06T21:53:47.551Z,95978.75
2023-03-06T21:56:18.471Z,95977.25
2023-03-06T21:58:46.059Z,95967.06
2023-03-06T22:01:16.041Z,95979.59
2023-03-06T22:03:47.498Z,95967.06
2023-03-06T22:06:21.812Z,95970.81
2023-03-06T22:08:48.505Z,95961.97
2023-03-06T22:11:17.814Z,95965.16
2023-03-06T22:13:45.028Z,95962.41
2023-03-06T22:16:12.710Z,95965.44
2023-03-06T22:18:42.392Z,95961.22
2023-03-06T22:21:13.233Z,95961.97
2023-03-06T22:23:43.261Z,95960.81
2023-03-06T22:26:12.800Z,95961.97
2023-03-06T22:28:42.647Z,95961.22
2023-03-06T22:31:14.577Z,95961.63
2023-03-06T22:33:44.216Z,95961.94
2023-03-06T22:36:13.969Z,95960.41
2023-03-06T22:38:44.847Z,95960.78
2023-03-06T22:41:15.809Z,95966.13
2023-03-06T22:43:45.151Z,95971.50
2023-03-06T22:46:14.857Z,95966.53
2023-03-06T22:48:46.984Z,95963.91
2023-03-06T22:51:18.410Z,95969.59
2023-03-06T22:53:45.693Z,95960.09
2023-03-06T22:56:15.189Z,95964.25
2023-03-06T22:58:44.910Z,95950.84
2023-03-06T23:01:17.372Z,95962.75
2023-03-06T23:03:50.962Z,95949.34
2023-03-06T23:06:20.743Z,95949.34
2023-03-06T23:08:55.422Z,95955.09
2023-03-06T23:11:25.413Z,95957.38
2023-03-06T23:13:55.182Z,95955.09
2023-03-06T23:16:21.856Z,95958.16
2023-03-06T23:18:51.278Z,95954.31
2023-03-06T23:21:24.580Z,95958.94
2023-03-06T23:23:54.986Z,95947.84
2023-03-06T23:26:24.598Z,95953.59
2023-03-06T23:28:54.117Z,95949.44
2023-03-06T23:31:24.258Z,95953.28
2023-03-06T23:33:53.081Z,95951.69
2023-03-06T23:36:19.742Z,95946.38
2023-03-06T23:38:48.705Z,95945.22
2023-03-06T23:41:20.545Z,95941.03
2023-03-06T23:43:48.071Z,95944.50
2023-03-06T23:46:15.117Z,95947.59
2023-03-06T23:48:44.523Z,95943.41
2023-03-06T23:51:22.616Z,95948.41
2023-03-06T23:53:58.129Z,95953.38
2023-03-06T23:56:26.469Z,95948.03
2023-03-06T23:58:55.996Z,95954.16
